South Bend, IN

10:17 AM EST en Febrero 22, 2017 (GMT -0500)
Northeast South Bend | | Change Station

Alt 0 ft 41.68 °N, 86.25 °W | Updated 3 minutes ago

Nublado
Nublado
56.3 ° F
Sensación térmica 56.3 ° F
N
1.2
Viento Variable Viento desde NNO
Gusts 3.7 mph

Hoy
Alta -- | Baja -- ° F
--% Posibilidad de precipitaciones
Ayer
Alta -- | Baja -- ° F
Precip. -- pul
Presión 29.82 pul
Visibilidad 4.0 Millas
Nubes Muy nublado 700 ft
Muy nublado 3000 ft
Punto de rocío 53 ° F
Humedad 88%
Precipitaciones 0.00 pul
Espesor de la nieve No disponible.
7:30 AM 6:27 PM
Creciente menguante, 17% visible
METAR KSBN 221454Z 19012KT 4SM BR BKN007 BKN030 13/12 A2982 RMK AO2 SLP098 T01280117 58017
Presión 29.82 pul
Visibilidad 4.0 Millas
Nubes Muy nublado 700 ft
Muy nublado 3000 ft
Punto de rocío 53 ° F
Humedad 88%
Precipitaciones 0.00 pul
Espesor de la nieve No disponible.
7:30 AM 6:27 PM
Creciente menguante, 17% visible
METAR KSBN 221454Z 19012KT 4SM BR BKN007 BKN030 13/12 A2982 RMK AO2 SLP098 T01280117 58017

Get Your Daily Forecast Email!

Thanks for signing up!

Be on the lookout for a verification email in your inbox.

You'll start receiving the daily forecast at 8 AM.

×

10-Day Weather Forecast

Almanac

Astronomía

Feb. 22, 2017 Salida Puesta
Hora real
Crepúsculo civil
Crepúsculo náutico
Crepúsculo astronómico
Luna
Horas de luz
Horas de luz
Tomorrow will be .
, % of the Moon is Illuminated

Extremos de hoy

Máximos del estado Bajos del estado

Community

WunderPhotos

Upload Photos

1,962,540 ¡fotos cargadas!

WunderBlog® & News

Nearby

Calidad del aire

  Calidad del aire Índice AQ Contaminante
Not available.

Grosos de nieve

Estación Profundido Altura

Actividad de terremotos

Ciudad Distance Mag. Tiempo y dato
Magnitud mínima muestra es 2,5.

Temperaturas de aguas costeras

Lugar Temperatura

Stations

Estaciones meteorológicas cercanas

Ubicación de la estación Temp. Vientos helados Punto de rocío Humedad Viento Precip. Alt Actualizado Tipo
                   

Watches & Warnings

There are currently no watches in effect.